Palmer, AK

1:35 PM AKDT on October 01, 2014 (GMT -0800)
Gold-Key Estates | Change Station
CLOSE
Current Station
Personal Weather Station
Location: Palmer, AK
Elevation: 203 ft
Nearby Weather Stations

Elev 203 ft 61.62 °N, 149.10 °W | Updated 1 minute ago

Clear
Clear
48.4 °F
Feels Like 48 °F
N
0.0
Wind Variable Wind from NE

Today
High -- | Low -- °F
--% Chance of Precip.
Yesterday
High -- | Low -- °F
Precip. -- in
8:03 AM 7:26 PM
Waxing Crescent, 51% visible
Pressure 30.20 in
Visibility 10.0 miles
Clouds Clear
Windchill 48 °F
Dew Point 28 °F
Humidity 44%
Rainfall 0.00 in
Snow Depth 0 in , 4 in , 3 in
UV 2 out of 12
Pollen Not available.
Air Quality Not available.
Flu Activity Not available.
METAR PAAQ 302053Z 00000KT 10SM CLR 06/M04 A3019 RMK AO2 SLP227 T00611039 51009

More Conditions Fewer Conditions

Pressure 30.20 in
Visibility 10.0 miles
Clouds Clear
Windchill 48 °F
Dew Point 28 °F
Humidity 44%
Rainfall 0.00 in
Snow Depth 0 in , 4 in , 3 in
UV 2 out of 12
Pollen Not available.
Air Quality Not available.
Flu Activity Not available.
METAR PAAQ 302053Z 00000KT 10SM CLR 06/M04 A3019 RMK AO2 SLP227 T00611039 51009

More Conditions Fewer Conditions

10-Day Weather Forecast

Almanac

Astronomy

Oct. 01, 2014 Rise Set
Actual Time 8:03 AM AKDT 7:26 PM AKDT
Civil Twilight 7:20 AM AKDT 8:10 PM AKDT
Nautical Twilight 6:28 AM AKDT 9:01 PM AKDT
Astronomical Twilight 5:34 AM AKDT 9:55 PM AKDT
Moon 4:28 PM AKDT 11:57 PM AKDT
Length of Visible Light 12h 50m
Length of Day
11h 23m
Tomorrow will be 5m 45s shorter.
Waxing Crescent, 51% of the Moon is Illuminated
Today
Waxing Crescent
Oct 8
Full
Oct 15
Last Quarter
Oct 23
New
Oct 30
First Quarter

Today's Extremes

State Highs State Lows

Community

WunderPhotos

Upload Photos

1,758,058 photos uploaded!

WunderBlogs® & News

By Dr. Jeff Masters
Director of Meteorology, Weather Underground
By Kari Strenfel
Meteorologist, Weather Underground
By Christopher C. Burt
Weather Historian, Weather Underground
October 1, 2014
October 1, 2014
October 1, 2014

Nearby

Snow Depth

Station Depth Elevation
Granite Creek 0 in 1240 ft
Gobblers Knob 4 in 2030 ft
Mt. Ryan 3 in 2800 ft
Atigun Pass 102 in 4800 ft
Munson Ridge 5 in 3100 ft

Earthquake Activity

City Distance Mag. Time & Date
No recent earthquake activity has been reported nearby.
Minimum magnitude displayed is 2.5.

Coastal Water Temperatures

Place Temperature
No Stations Reporting

Nearby Weather Stations